Time;durP1;ratioP1;P1;durP2;ratioP2;P2;SDS_P1;SDS_P2;PMS_P1;PMS_P2;Temp;Humidity;BMP_temperature;BMP_pressure;BME280_temperature;BME280_humidity;BME280_pressure;Samples;Min_cycle;Max_cycle;Signal;HPM_P1;HPM_P2
2023/06/07 00:00:20;;;;;;;;;;;19.40;99.90;;;;;;5090788;28;19914;-41
2023/06/07 00:02:45;;;;;;;;;;;19.40;99.90;;;;;;5092067;28;19912;-42
2023/06/07 00:05:12;;;;;;;;;;;19.40;99.90;;;;;;5094900;28;19912;-40
2023/06/07 00:07:38;;;;;;;;;;;19.40;99.90;;;;;;5094862;28;20297;-41
2023/06/07 00:10:04;;;;;;;;;;;19.40;99.90;;;;;;5094481;28;19908;-41
2023/06/07 00:12:29;;;;;;;;;;;19.40;99.90;;;;;;5094854;28;19912;-41
2023/06/07 00:14:55;;;;;;;;;;;19.40;99.90;;;;;;5094649;28;19943;-40
2023/06/07 00:17:20;;;;;;;;;;;19.40;99.90;;;;;;5094585;28;19919;-40
2023/06/07 00:19:46;;;;;;;;;;;19.40;99.90;;;;;;5094644;28;20425;-40
2023/06/07 00:22:12;;;;;;;;;;;19.40;99.90;;;;;;5094218;28;19916;-42
2023/06/07 00:24:38;;;;;;;;;;;19.40;99.90;;;;;;5094504;28;19908;-40
2023/06/07 00:27:04;;;;;;;;;;;19.40;99.90;;;;;;5094796;28;19927;-41
2023/06/07 00:29:30;;;;;;;;;;;19.40;99.90;;;;;;5094501;28;20290;-40
2023/06/07 00:31:55;;;;;;;;;;;19.40;99.90;;;;;;5095009;28;19991;-41
2023/06/07 00:34:21;;;;;;;;;;;19.30;99.90;;;;;;5094300;28;20369;-43
2023/06/07 00:36:47;;;;;;;;;;;19.30;99.90;;;;;;5094295;28;20021;-41
2023/06/07 00:39:13;;;;;;;;;;;19.30;99.90;;;;;;5094308;28;19916;-40
2023/06/07 00:41:38;;;;;;;;;;;19.30;99.90;;;;;;5093722;28;19994;-40
2023/06/07 00:44:04;;;;;;;;;;;19.30;99.90;;;;;;5094134;28;19912;-40
2023/06/07 00:46:30;;;;;;;;;;;19.30;99.90;;;;;;5094105;28;20384;-43
2023/06/07 00:48:56;;;;;;;;;;;19.30;99.90;;;;;;5094190;28;19908;-40
2023/06/07 00:51:22;;;;;;;;;;;19.30;99.90;;;;;;5093718;28;20678;-41
2023/06/07 00:53:49;;;;;;;;;;;19.30;99.90;;;;;;5093929;28;19931;-41
2023/06/07 00:56:15;;;;;;;;;;;19.30;99.90;;;;;;5093819;28;20297;-41
2023/06/07 00:58:41;;;;;;;;;;;19.30;99.90;;;;;;5093974;28;19923;-40
2023/06/07 01:01:08;;;;;;;;;;;19.30;99.90;;;;;;5093448;28;19934;-41
2023/06/07 01:03:34;;;;;;;;;;;19.30;99.90;;;;;;5094500;28;19935;-41
2023/06/07 01:06:02;;;;;;;;;;;19.30;99.90;;;;;;5094120;28;19963;-41
2023/06/07 01:08:28;;;;;;;;;;;19.20;99.90;;;;;;5093790;28;19933;-41
2023/06/07 01:10:54;;;;;;;;;;;19.30;99.90;;;;;;5093237;28;19931;-41
2023/06/07 01:13:19;;;;;;;;;;;19.20;99.90;;;;;;5094084;28;20286;-41
2023/06/07 01:15:45;;;;;;;;;;;19.20;99.90;;;;;;5093633;28;20386;-40
2023/06/07 01:18:11;;;;;;;;;;;19.20;99.90;;;;;;5093545;28;19918;-41
2023/06/07 01:20:43;;;;;;;;;;;19.20;99.90;;;;;;5093213;28;19919;-41
2023/06/07 01:23:12;;;;;;;;;;;19.20;99.90;;;;;;5093555;28;19912;-41
2023/06/07 01:25:38;;;;;;;;;;;19.20;99.90;;;;;;5093261;28;20349;-41
2023/06/07 01:28:05;;;;;;;;;;;19.20;99.90;;;;;;5093673;28;19951;-40
2023/06/07 01:30:32;;;;;;;;;;;19.20;99.90;;;;;;5093002;28;20377;-40
2023/06/07 01:32:58;;;;;;;;;;;19.20;99.90;;;;;;5093403;28;19912;-42
2023/06/07 01:35:24;;;;;;;;;;;19.10;99.90;;;;;;5093146;28;20423;-41
2023/06/07 01:37:50;;;;;;;;;;;19.20;99.90;;;;;;5093129;28;20003;-41
2023/06/07 01:40:16;;;;;;;;;;;19.10;99.90;;;;;;5092772;28;19908;-41
2023/06/07 01:42:42;;;;;;;;;;;19.10;99.90;;;;;;5093120;28;19958;-41
2023/06/07 01:45:08;;;;;;;;;;;19.10;99.90;;;;;;5093480;28;19977;-41
2023/06/07 01:47:34;;;;;;;;;;;19.10;99.90;;;;;;5092963;28;19908;-41
2023/06/07 01:49:59;;;;;;;;;;;19.10;99.90;;;;;;5092593;28;19915;-40
2023/06/07 01:52:27;;;;;;;;;;;19.10;99.90;;;;;;5092858;28;19953;-41
2023/06/07 01:54:53;;;;;;;;;;;19.10;99.90;;;;;;5092751;28;19912;-41
2023/06/07 01:57:37;;;;;;;;;;;19.10;99.90;;;;;;5093093;28;19912;-40
2023/06/07 02:00:21;;;;;;;;;;;19.10;99.90;;;;;;5092627;28;19908;-42
2023/06/07 02:02:55;;;;;;;;;;;19.10;99.90;;;;;;5092630;28;19976;-42
2023/06/07 02:05:40;;;;;;;;;;;19.10;99.90;;;;;;5092602;28;19952;-41
2023/06/07 02:08:26;;;;;;;;;;;19.10;99.90;;;;;;5092087;28;19978;-41
2023/06/07 02:10:52;;;;;;;;;;;19.10;99.90;;;;;;5084438;28;19962;-41
2023/06/07 02:13:18;;;;;;;;;;;19.10;99.90;;;;;;5092249;28;19912;-41
2023/06/07 02:15:44;;;;;;;;;;;19.00;99.90;;;;;;5092415;28;20017;-41
2023/06/07 02:18:11;;;;;;;;;;;19.00;99.90;;;;;;5092363;28;20433;-41
2023/06/07 02:20:37;;;;;;;;;;;19.00;99.90;;;;;;5091958;28;19908;-41
2023/06/07 02:23:02;;;;;;;;;;;19.00;99.90;;;;;;5092359;28;19908;-40
2023/06/07 02:25:28;;;;;;;;;;;19.00;99.90;;;;;;5092056;28;19961;-41
2023/06/07 02:27:54;;;;;;;;;;;19.00;99.90;;;;;;5091939;28;19920;-41
2023/06/07 02:30:19;;;;;;;;;;;19.00;99.90;;;;;;5092069;28;19913;-40
2023/06/07 02:32:48;;;;;;;;;;;18.90;99.80;;;;;;5092196;28;19919;-41
2023/06/07 02:35:15;;;;;;;;;;;19.00;99.80;;;;;;5092044;28;20377;-41
2023/06/07 02:37:40;;;;;;;;;;;18.90;99.80;;;;;;5092019;28;19916;-41
2023/06/07 02:40:08;;;;;;;;;;;18.90;99.80;;;;;;5091651;28;19981;-40
2023/06/07 02:42:35;;;;;;;;;;;18.90;99.80;;;;;;5091934;28;19909;-40
2023/06/07 02:45:02;;;;;;;;;;;18.90;99.70;;;;;;5090595;28;19987;-41
2023/06/07 02:47:28;;;;;;;;;;;18.90;99.70;;;;;;5091929;28;19974;-41
2023/06/07 02:49:54;;;;;;;;;;;18.90;99.70;;;;;;5091759;28;19915;-40
2023/06/07 02:52:20;;;;;;;;;;;18.90;99.70;;;;;;5091691;28;20379;-40
2023/06/07 02:54:45;;;;;;;;;;;18.90;99.70;;;;;;5091666;28;19915;-41
2023/06/07 02:57:11;;;;;;;;;;;18.90;99.70;;;;;;5091577;28;19916;-42
2023/06/07 02:59:39;;;;;;;;;;;18.80;99.70;;;;;;5091758;28;20274;-41
2023/06/07 03:02:05;;;;;;;;;;;18.90;99.90;;;;;;5091136;28;19918;-41
2023/06/07 03:04:31;;;;;;;;;;;18.90;99.60;;;;;;5091597;28;19912;-40
2023/06/07 03:06:57;;;;;;;;;;;18.90;99.60;;;;;;5091623;28;20294;-40
2023/06/07 03:09:22;;;;;;;;;;;18.90;99.50;;;;;;5091606;28;19908;-40
2023/06/07 03:11:48;;;;;;;;;;;18.90;99.50;;;;;;5091096;28;19909;-40
2023/06/07 03:14:14;;;;;;;;;;;18.90;99.50;;;;;;5091456;28;19916;-40
2023/06/07 03:16:40;;;;;;;;;;;18.90;99.50;;;;;;5091504;28;19965;-40
2023/06/07 03:19:06;;;;;;;;;;;18.90;99.40;;;;;;5091697;28;19943;-41
2023/06/07 03:21:31;;;;;;;;;;;18.80;99.40;;;;;;5091132;28;19908;-41
2023/06/07 03:23:57;;;;;;;;;;;18.80;99.50;;;;;;5091498;28;19919;-41
2023/06/07 03:26:22;;;;;;;;;;;18.80;99.50;;;;;;5091238;28;20339;-41
2023/06/07 03:28:48;;;;;;;;;;;18.80;99.50;;;;;;5092047;28;20014;-40
2023/06/07 03:31:13;;;;;;;;;;;18.80;99.50;;;;;;5091247;28;19908;-40
2023/06/07 03:33:40;;;;;;;;;;;18.80;99.50;;;;;;5091291;28;19908;-41
2023/06/07 03:36:07;;;;;;;;;;;18.80;99.40;;;;;;5091883;28;20289;-42
2023/06/07 03:38:32;;;;;;;;;;;18.80;99.40;;;;;;5095546;28;19908;-41
2023/06/07 03:40:58;;;;;;;;;;;18.80;99.30;;;;;;5095203;28;19991;-41
2023/06/07 03:43:24;;;;;;;;;;;18.80;99.30;;;;;;5095630;28;20420;-41
2023/06/07 03:45:49;;;;;;;;;;;18.80;99.30;;;;;;5095490;28;19915;-40
2023/06/07 03:48:15;;;;;;;;;;;18.80;99.30;;;;;;5095360;28;20387;-40
2023/06/07 03:50:40;;;;;;;;;;;18.80;99.30;;;;;;5095161;28;19912;-41
2023/06/07 03:53:06;;;;;;;;;;;18.80;99.30;;;;;;5095337;28;19908;-40
2023/06/07 03:55:32;;;;;;;;;;;18.80;99.30;;;;;;5095279;28;19923;-41
2023/06/07 03:57:58;;;;;;;;;;;18.70;99.30;;;;;;5095716;28;19915;-41
2023/06/07 04:00:26;;;;;;;;;;;18.80;99.40;;;;;;5094777;28;19912;-40
2023/06/07 04:02:53;;;;;;;;;;;18.80;99.30;;;;;;5095080;28;19962;-40
2023/06/07 04:05:19;;;;;;;;;;;18.70;99.30;;;;;;5094973;28;19919;-41
2023/06/07 04:07:46;;;;;;;;;;;18.70;99.30;;;;;;5095601;28;19912;-40
2023/06/07 04:10:12;;;;;;;;;;;18.70;99.30;;;;;;5095254;28;20897;-42
2023/06/07 04:12:37;;;;;;;;;;;18.70;99.30;;;;;;5095228;28;20362;-40
2023/06/07 04:15:03;;;;;;;;;;;18.70;99.30;;;;;;5094645;28;19962;-41
2023/06/07 04:17:28;;;;;;;;;;;18.70;99.30;;;;;;5094761;28;19908;-41
2023/06/07 04:19:56;;;;;;;;;;;18.70;99.30;;;;;;5094543;28;19912;-41
2023/06/07 04:22:22;;;;;;;;;;;18.70;99.30;;;;;;5094624;28;19969;-40
2023/06/07 04:24:48;;;;;;;;;;;18.70;99.30;;;;;;5094761;28;19916;-40
2023/06/07 04:27:17;;;;;;;;;;;18.70;99.30;;;;;;5094379;28;19962;-41
2023/06/07 04:29:43;;;;;;;;;;;18.70;99.40;;;;;;5094527;28;20290;-41
2023/06/07 04:32:09;;;;;;;;;;;18.70;99.30;;;;;;5094136;28;20070;-41
2023/06/07 04:34:41;;;;;;;;;;;18.70;99.40;;;;;;5094307;28;19912;-40
2023/06/07 04:37:08;;;;;;;;;;;18.70;99.50;;;;;;5094215;28;20327;-41
2023/06/07 04:39:36;;;;;;;;;;;18.70;99.50;;;;;;5094302;28;20305;-41
2023/06/07 04:42:05;;;;;;;;;;;18.70;99.50;;;;;;5093866;28;19919;-40
2023/06/07 04:44:30;;;;;;;;;;;18.70;99.50;;;;;;5094151;28;19924;-41
2023/06/07 04:46:57;;;;;;;;;;;18.70;99.50;;;;;;5094102;28;19912;-39
2023/06/07 04:49:23;;;;;;;;;;;18.60;99.20;;;;;;5093429;28;19995;-40
2023/06/07 04:51:50;;;;;;;;;;;18.40;99.50;;;;;;5094192;28;19915;-40
2023/06/07 04:54:17;;;;;;;;;;;18.20;99.80;;;;;;5094531;28;20312;-43
2023/06/07 04:56:43;;;;;;;;;;;18.10;99.90;;;;;;5093942;28;19995;-42
2023/06/07 04:59:09;;;;;;;;;;;18.10;99.90;;;;;;5093982;28;20417;-40
2023/06/07 05:01:35;;;;;;;;;;;18.10;99.90;;;;;;5093481;28;19915;-40
2023/06/07 05:04:02;;;;;;;;;;;18.20;99.90;;;;;;5093795;28;19916;-40
2023/06/07 05:06:36;;;;;;;;;;;18.20;99.90;;;;;;5093726;28;19978;-40
2023/06/07 05:09:03;;;;;;;;;;;18.20;99.90;;;;;;5093898;28;19912;-40
2023/06/07 05:11:28;;;;;;;;;;;18.30;99.90;;;;;;5093309;28;19915;-40
2023/06/07 05:13:54;;;;;;;;;;;18.30;99.90;;;;;;5093607;28;19912;-40
2023/06/07 05:16:20;;;;;;;;;;;18.30;99.90;;;;;;5093566;28;19930;-41
2023/06/07 05:18:49;;;;;;;;;;;18.30;99.90;;;;;;5093982;28;19908;-39
2023/06/07 05:21:17;;;;;;;;;;;18.40;99.90;;;;;;5093201;28;19943;-40
2023/06/07 05:23:43;;;;;;;;;;;18.40;99.90;;;;;;5093443;28;20286;-40
2023/06/07 05:26:09;;;;;;;;;;;18.40;99.90;;;;;;5093364;28;19927;-40
2023/06/07 05:28:35;;;;;;;;;;;18.40;99.90;;;;;;5093368;28;19909;-40
2023/06/07 05:31:00;;;;;;;;;;;18.40;99.90;;;;;;5092938;28;19918;-40
2023/06/07 05:33:28;;;;;;;;;;;18.40;99.90;;;;;;5093120;28;19908;-40
2023/06/07 05:35:54;;;;;;;;;;;18.40;99.90;;;;;;5093152;28;20007;-40
2023/06/07 05:38:20;;;;;;;;;;;18.50;99.90;;;;;;5093150;28;19944;-40
2023/06/07 05:40:46;;;;;;;;;;;18.50;99.90;;;;;;5092737;28;20002;-40
2023/06/07 05:43:11;;;;;;;;;;;18.50;99.90;;;;;;5093191;28;19913;-40
2023/06/07 05:45:37;;;;;;;;;;;18.50;99.90;;;;;;5093454;28;19908;-40
2023/06/07 05:48:02;;;;;;;;;;;18.60;99.90;;;;;;5092944;28;19916;-40
2023/06/07 05:50:28;;;;;;;;;;;18.60;99.90;;;;;;5092583;28;19953;-40
2023/06/07 05:52:57;;;;;;;;;;;18.60;99.90;;;;;;5092915;28;19986;-40
2023/06/07 05:55:28;;;;;;;;;;;18.60;99.90;;;;;;5092705;28;19912;-40
2023/06/07 05:57:54;;;;;;;;;;;18.60;99.90;;;;;;5092759;28;19953;-41
2023/06/07 06:00:20;;;;;;;;;;;18.70;99.90;;;;;;5091300;28;20378;-40
2023/06/07 06:02:46;;;;;;;;;;;18.60;99.90;;;;;;5092685;28;20016;-43
2023/06/07 06:05:12;;;;;;;;;;;18.60;99.90;;;;;;5092576;28;20302;-41
2023/06/07 06:07:37;;;;;;;;;;;18.70;99.90;;;;;;5092702;28;19947;-40
2023/06/07 06:10:04;;;;;;;;;;;18.70;99.90;;;;;;5090863;28;19995;-40
2023/06/07 06:12:32;;;;;;;;;;;18.70;99.90;;;;;;5092541;28;19912;-40
2023/06/07 06:14:59;;;;;;;;;;;18.80;99.90;;;;;;5092255;28;19935;-40
2023/06/07 06:17:25;;;;;;;;;;;18.80;99.90;;;;;;5092339;28;19909;-40
2023/06/07 06:19:50;;;;;;;;;;;18.80;99.90;;;;;;5092468;28;20400;-42
2023/06/07 06:22:16;;;;;;;;;;;18.80;99.90;;;;;;5092087;28;19918;-39
2023/06/07 06:24:41;;;;;;;;;;;18.90;99.90;;;;;;5092554;28;20011;-40
2023/06/07 06:27:07;;;;;;;;;;;18.90;99.90;;;;;;5092356;28;19916;-39
2023/06/07 06:29:33;;;;;;;;;;;18.90;99.90;;;;;;5092084;28;19961;-39
2023/06/07 06:31:59;;;;;;;;;;;19.00;99.90;;;;;;5091763;28;19908;-40
2023/06/07 06:34:25;;;;;;;;;;;19.00;99.90;;;;;;5092048;28;19919;-39
2023/06/07 06:36:50;;;;;;;;;;;19.00;99.90;;;;;;5092059;28;20377;-40
2023/06/07 06:39:16;;;;;;;;;;;19.00;99.90;;;;;;5092164;28;20361;-40
2023/06/07 06:41:41;;;;;;;;;;;19.00;99.90;;;;;;5091598;28;19912;-40
2023/06/07 06:44:07;;;;;;;;;;;19.00;99.90;;;;;;5091822;28;19909;-41
2023/06/07 06:46:33;;;;;;;;;;;19.00;99.90;;;;;;5091925;28;19908;-41
2023/06/07 06:48:58;;;;;;;;;;;19.10;99.90;;;;;;5090970;28;19908;-39
2023/06/07 06:51:24;;;;;;;;;;;19.10;99.90;;;;;;5091558;28;20102;-40
2023/06/07 06:53:49;;;;;;;;;;;19.10;99.90;;;;;;5091776;28;19916;-40
2023/06/07 06:56:15;;;;;;;;;;;19.10;99.90;;;;;;5091992;28;19919;-40
2023/06/07 06:58:41;;;;;;;;;;;19.10;99.90;;;;;;5091726;28;19945;-41
2023/06/07 07:01:07;;;;;;;;;;;19.10;99.90;;;;;;5091297;28;19908;-40
2023/06/07 07:03:33;;;;;;;;;;;19.10;99.90;;;;;;5091662;28;19912;-40
2023/06/07 07:05:58;;;;;;;;;;;19.10;99.90;;;;;;5091992;28;19919;-40
2023/06/07 07:08:24;;;;;;;;;;;19.20;99.90;;;;;;5091560;28;20380;-40
2023/06/07 07:10:50;;;;;;;;;;;19.10;99.90;;;;;;5091257;28;19908;-40
2023/06/07 07:13:16;;;;;;;;;;;19.20;99.90;;;;;;5091193;28;19912;-40
2023/06/07 07:15:41;;;;;;;;;;;19.20;99.90;;;;;;5091528;28;19912;-42
2023/06/07 07:18:10;;;;;;;;;;;19.20;99.90;;;;;;5091562;28;19908;-40
2023/06/07 07:20:35;;;;;;;;;;;19.20;99.90;;;;;;5091275;28;20277;-39
2023/06/07 07:23:02;;;;;;;;;;;19.20;99.90;;;;;;5091527;28;19951;-40
2023/06/07 07:25:28;;;;;;;;;;;19.20;99.90;;;;;;5091470;28;19961;-40
2023/06/07 07:27:54;;;;;;;;;;;19.20;99.90;;;;;;5091347;28;20301;-40
2023/06/07 07:30:19;;;;;;;;;;;19.30;99.90;;;;;;5091110;28;20369;-40
2023/06/07 07:32:45;;;;;;;;;;;19.20;99.90;;;;;;5091517;28;20401;-41
2023/06/07 07:35:10;;;;;;;;;;;19.20;99.90;;;;;;5091357;28;19923;-39
2023/06/07 07:37:38;;;;;;;;;;;19.20;99.90;;;;;;5091480;28;19932;-40
2023/06/07 07:40:05;;;;;;;;;;;19.20;99.90;;;;;;5091137;28;19943;-40
2023/06/07 07:42:30;;;;;;;;;;;19.20;99.90;;;;;;5091242;28;19919;-39
2023/06/07 07:44:56;;;;;;;;;;;19.20;99.90;;;;;;5091807;28;19912;-41
2023/06/07 07:47:21;;;;;;;;;;;19.30;99.90;;;;;;5091257;28;19915;-39
2023/06/07 07:49:47;;;;;;;;;;;19.30;99.90;;;;;;5091269;28;20297;-39
2023/06/07 07:52:12;;;;;;;;;;;19.30;99.90;;;;;;5090899;28;19908;-39
2023/06/07 07:54:38;;;;;;;;;;;19.30;99.90;;;;;;5091167;28;19919;-39
2023/06/07 07:57:04;;;;;;;;;;;19.30;99.90;;;;;;5091690;28;20429;-39
2023/06/07 07:59:29;;;;;;;;;;;19.30;99.90;;;;;;5091643;28;20450;-39
2023/06/07 08:01:55;;;;;;;;;;;19.30;99.90;;;;;;5090775;28;19919;-43
2023/06/07 08:04:21;;;;;;;;;;;19.20;99.90;;;;;;5091200;28;19916;-39
2023/06/07 08:06:47;;;;;;;;;;;19.30;99.90;;;;;;5091064;28;20370;-39
2023/06/07 08:09:13;;;;;;;;;;;19.30;99.90;;;;;;5091141;28;19908;-39
2023/06/07 08:11:38;;;;;;;;;;;19.30;99.90;;;;;;5090578;28;19908;-44
2023/06/07 08:14:03;;;;;;;;;;;19.40;99.90;;;;;;5090950;28;19913;-38
2023/06/07 08:16:30;;;;;;;;;;;19.30;99.90;;;;;;5089675;28;20362;-39
2023/06/07 08:18:58;;;;;;;;;;;19.40;99.90;;;;;;5091133;28;19947;-39
2023/06/07 08:21:24;;;;;;;;;;;19.40;99.90;;;;;;5090645;28;19915;-43
2023/06/07 08:23:52;;;;;;;;;;;19.40;99.90;;;;;;5092448;28;19958;-38
2023/06/07 08:26:18;;;;;;;;;;;19.40;99.90;;;;;;5094378;28;20283;-39
2023/06/07 08:28:44;;;;;;;;;;;19.40;99.90;;;;;;5093342;28;19915;-41
2023/06/07 08:31:10;;;;;;;;;;;19.40;99.90;;;;;;5094279;28;19908;-39
2023/06/07 08:33:36;;;;;;;;;;;19.40;99.90;;;;;;5094436;28;19934;-39
2023/06/07 08:36:01;;;;;;;;;;;19.40;99.90;;;;;;5094309;28;19915;-40
2023/06/07 08:38:27;;;;;;;;;;;19.40;99.90;;;;;;5094323;28;20289;-40
2023/06/07 08:40:53;;;;;;;;;;;19.40;99.90;;;;;;5093831;28;19912;-40
2023/06/07 08:43:19;;;;;;;;;;;19.40;99.90;;;;;;5094242;28;19919;-39
2023/06/07 08:45:45;;;;;;;;;;;19.50;99.90;;;;;;5094285;28;19908;-40
2023/06/07 08:48:12;;;;;;;;;;;19.50;99.90;;;;;;5094340;28;19912;-40
2023/06/07 08:50:38;;;;;;;;;;;19.50;99.90;;;;;;5093696;28;19915;-39
2023/06/07 08:53:09;;;;;;;;;;;19.60;99.90;;;;;;5092873;28;20335;-40
2023/06/07 08:55:36;;;;;;;;;;;19.60;99.90;;;;;;5093880;28;20015;-39
2023/06/07 08:58:01;;;;;;;;;;;19.60;99.90;;;;;;5094341;28;19919;-39
2023/06/07 09:00:28;;;;;;;;;;;19.60;99.90;;;;;;5094198;28;20293;-39
2023/06/07 09:02:54;;;;;;;;;;;19.60;99.90;;;;;;5093930;28;19998;-40
2023/06/07 09:05:22;;;;;;;;;;;19.70;99.90;;;;;;5093814;28;20014;-39
2023/06/07 09:07:48;;;;;;;;;;;19.70;99.90;;;;;;5093689;28;20338;-39
2023/06/07 09:10:17;;;;;;;;;;;19.70;99.90;;;;;;5093400;28;19966;-39
2023/06/07 09:12:43;;;;;;;;;;;19.80;99.90;;;;;;5093751;28;20353;-40
2023/06/07 09:15:10;;;;;;;;;;;19.80;99.90;;;;;;5093920;28;20042;-39
2023/06/07 09:17:49;;;;;;;;;;;19.80;99.90;;;;;;5093644;28;19909;-40
2023/06/07 09:20:21;;;;;;;;;;;19.80;99.90;;;;;;5093728;28;20011;-40
2023/06/07 09:22:59;;;;;;;;;;;19.80;99.90;;;;;;5093547;28;20285;-39
2023/06/07 09:25:25;;;;;;;;;;;19.80;99.90;;;;;;5094109;28;19919;-39
2023/06/07 09:27:51;;;;;;;;;;;19.90;99.90;;;;;;5093492;28;20349;-39
2023/06/07 09:30:18;;;;;;;;;;;19.90;99.90;;;;;;5093634;28;19908;-39
2023/06/07 09:32:43;;;;;;;;;;;19.90;99.90;;;;;;5093409;28;19908;-40
2023/06/07 09:35:13;;;;;;;;;;;19.90;99.90;;;;;;5093513;28;19912;-40
2023/06/07 09:37:43;;;;;;;;;;;19.90;99.90;;;;;;5093268;28;19908;-40
2023/06/07 09:40:08;;;;;;;;;;;19.90;99.90;;;;;;5093075;28;20269;-39
2023/06/07 09:42:34;;;;;;;;;;;20.00;99.90;;;;;;5093214;28;19908;-39
2023/06/07 09:45:12;;;;;;;;;;;20.00;99.90;;;;;;5093614;28;19896;-39
2023/06/07 09:47:39;;;;;;;;;;;20.10;99.90;;;;;;5093803;28;20335;-42
2023/06/07 09:50:11;;;;;;;;;;;20.30;99.90;;;;;;5092741;28;20266;-41
2023/06/07 09:52:37;;;;;;;;;;;20.40;99.90;;;;;;5093022;28;19915;-41
2023/06/07 09:55:03;;;;;;;;;;;20.60;99.90;;;;;;5093214;28;19913;-42
2023/06/07 09:57:32;;;;;;;;;;;20.70;99.90;;;;;;5093012;28;19908;-42
2023/06/07 09:59:58;;;;;;;;;;;20.90;99.90;;;;;;5092586;28;19916;-42
2023/06/07 10:02:27;;;;;;;;;;;21.00;99.90;;;;;;5092508;28;19908;-41
2023/06/07 10:04:55;;;;;;;;;;;21.00;99.90;;;;;;5092620;28;19915;-41
2023/06/07 10:07:22;;;;;;;;;;;21.00;99.50;;;;;;5093922;28;19919;-41
2023/06/07 10:09:49;;;;;;;;;;;21.00;99.60;;;;;;5092629;28;19911;-42
2023/06/07 10:12:16;;;;;;;;;;;21.10;99.50;;;;;;5092296;28;20003;-42
2023/06/07 10:14:44;;;;;;;;;;;21.10;99.60;;;;;;5092260;28;19916;-41
2023/06/07 10:17:10;;;;;;;;;;;21.10;99.70;;;;;;5092397;28;19951;-42
2023/06/07 10:19:40;;;;;;;;;;;21.10;99.90;;;;;;5092388;28;19915;-41
2023/06/07 10:22:08;;;;;;;;;;;21.10;99.90;;;;;;5090717;28;20290;-41
2023/06/07 10:50:31;;;;;;;5.72;1.60;;;21.40;98.80;;;;;;5108251;27;20453;-43
2023/06/07 10:53:01;;;;;;;12.23;2.30;;;21.70;98.60;;;;;;5106322;28;20085;-42
2023/06/07 10:55:31;;;;;;;3.20;1.83;;;21.80;98.50;;;;;;5099092;28;20031;-42
2023/06/07 10:58:00;;;;;;;6.05;1.50;;;21.90;98.60;;;;;;5095172;28;20028;-41
2023/06/07 11:00:29;;;;;;;22.95;2.72;;;22.00;98.20;;;;;;5102862;28;20126;-41
2023/06/07 11:03:10;;;;;;;6.97;1.85;;;21.90;98.40;;;;;;5093069;28;20029;-41
2023/06/07 11:06:02;;;;;;;13.52;2.15;;;21.90;98.50;;;;;;5094942;28;20032;-40
2023/06/07 11:08:32;;;;;;;10.32;2.20;;;21.80;98.50;;;;;;5095111;28;20119;-42
2023/06/07 11:11:00;;;;;;;4.70;1.98;;;21.70;98.60;;;;;;5096678;28;20512;-43
2023/06/07 11:13:44;;;;;;;6.78;1.75;;;21.70;98.90;;;;;;5099000;28;20099;-41
2023/06/07 11:16:28;;;;;;;4.28;1.58;;;21.70;99.00;;;;;;5095406;28;20028;-42
2023/06/07 11:19:03;;;;;;;4.57;1.70;;;21.60;98.60;;;;;;5088250;28;20020;-42
2023/06/07 11:21:29;;;;;;;11.27;2.10;;;21.60;98.80;;;;;;5094900;28;20078;-43
2023/06/07 11:24:11;;;;;;;4.40;1.80;;;21.60;99.00;;;;;;5090882;28;20027;-41
2023/06/07 11:26:37;;;;;;;4.10;1.90;;;21.50;98.80;;;;;;5092391;28;20036;-42
2023/06/07 11:29:05;;;;;;;6.10;1.65;;;21.60;98.90;;;;;;5103093;28;20024;-41
2023/06/07 11:31:31;;;;;;;29.67;3.25;;;21.60;98.30;;;;;;5086797;28;20032;-43
2023/06/07 11:33:57;;;;;;;8.57;1.88;;;21.60;98.90;;;;;;5093393;28;20028;-43
2023/06/07 11:36:22;;;;;;;4.82;1.80;;;21.50;98.90;;;;;;5099998;28;20032;-43
2023/06/07 11:38:49;;;;;;;3.95;1.85;;;21.60;99.60;;;;;;5088802;28;20032;-42
2023/06/07 11:41:16;;;;;;;4.28;1.90;;;21.60;99.90;;;;;;5082232;28;20035;-42
2023/06/07 11:43:41;;;;;;;7.75;1.77;;;21.60;99.90;;;;;;5089494;28;20032;-43
2023/06/07 11:46:07;;;;;;;5.55;1.85;;;21.60;99.80;;;;;;5083304;28;20024;-42
2023/06/07 11:48:33;;;;;;;5.25;1.90;;;21.70;99.50;;;;;;5082513;28;20509;-45
2023/06/07 11:51:00;;;;;;;6.00;2.08;;;21.70;99.20;;;;;;5091104;28;20028;-43
2023/06/07 11:53:30;;;;;;;13.70;2.45;;;21.90;98.70;;;;;;5078942;28;20020;-42
2023/06/07 11:55:56;;;;;;;7.20;1.80;;;21.80;98.50;;;;;;5088598;28;20016;-42
2023/06/07 11:58:23;;;;;;;446.20;24.95;;;21.80;98.10;;;;;;5089035;28;20020;-43
2023/06/07 12:00:49;;;;;;;37.08;3.00;;;21.80;98.40;;;;;;5090822;28;20111;-43
2023/06/07 12:03:16;;;;;;;4.93;2.00;;;21.90;98.40;;;;;;5086167;28;20028;-44
2023/06/07 12:05:44;;;;;;;4.18;1.50;;;22.00;98.60;;;;;;5093847;28;20103;-43
2023/06/07 12:08:17;;;;;;;2.63;1.50;;;22.10;98.30;;;;;;5093699;28;20107;-43
2023/06/07 12:10:51;;;;;;;4.95;1.50;;;22.30;98.10;;;;;;5092141;28;20032;-43
2023/06/07 12:13:18;;;;;;;2.55;1.40;;;22.30;97.80;;;;;;5093676;28;20540;-43
2023/06/07 12:15:46;;;;;;;3.92;1.75;;;22.30;97.70;;;;;;5093601;28;20032;-43
2023/06/07 12:18:17;;;;;;;4.35;1.58;;;22.30;97.80;;;;;;5093415;28;20433;-43
2023/06/07 12:20:45;;;;;;;5.30;1.88;;;22.20;97.70;;;;;;5093356;28;20063;-45
2023/06/07 12:23:12;;;;;;;3.80;1.50;;;22.10;97.90;;;;;;5093536;28;20382;-43
2023/06/07 12:25:41;;;;;;;2.38;1.25;;;22.10;98.00;;;;;;5093670;28;20359;-43
2023/06/07 12:28:13;;;;;;;3.63;1.58;;;22.10;97.30;;;;;;5093304;28;20024;-44
2023/06/07 12:30:41;;;;;;;3.20;1.50;;;22.10;97.40;;;;;;5093408;28;20027;-44
2023/06/07 12:33:17;;;;;;;2.55;1.48;;;22.30;97.00;;;;;;5093637;28;20071;-43
2023/06/07 12:35:47;;;;;;;4.40;1.70;;;22.30;96.80;;;;;;5093239;28;20024;-43
2023/06/07 12:38:13;;;;;;;6.25;1.70;;;22.30;97.10;;;;;;5092925;28;20376;-43
2023/06/07 12:40:39;;;;;;;9.30;1.60;;;22.20;97.30;;;;;;5092919;28;20024;-42
2023/06/07 12:43:06;;;;;;;8.05;1.77;;;22.30;97.30;;;;;;5093161;28;20074;-43
2023/06/07 12:45:31;;;;;;;3.95;1.63;;;22.20;97.30;;;;;;5093037;28;20028;-42
2023/06/07 12:47:57;;;;;;;6.43;1.60;;;22.30;97.00;;;;;;5092890;28;20031;-42
2023/06/07 12:50:23;;;;;;;8.43;1.30;;;22.30;97.00;;;;;;5091771;28;20414;-42
2023/06/07 12:52:50;;;;;;;2.72;1.55;;;22.20;97.10;;;;;;5092815;28;20391;-42
2023/06/07 12:55:15;;;;;;;23.30;2.20;;;22.20;97.10;;;;;;5092841;28;20035;-42
2023/06/07 12:57:41;;;;;;;2.67;1.70;;;22.10;97.30;;;;;;5092797;28;20028;-43
2023/06/07 13:00:07;;;;;;;4.22;1.73;;;22.20;96.60;;;;;;5092475;28;20055;-42
2023/06/07 13:02:34;;;;;;;5.30;2.35;;;22.20;96.70;;;;;;5092728;28;20032;-44
2023/06/07 13:05:00;;;;;;;4.90;1.88;;;22.30;96.80;;;;;;5092610;28;20063;-43
2023/06/07 13:07:25;;;;;;;2.75;1.40;;;22.30;96.80;;;;;;5092718;28;20502;-43
2023/06/07 13:09:51;;;;;;;5.63;1.33;;;22.30;97.50;;;;;;5092619;28;20016;-42
2023/06/07 13:12:17;;;;;;;4.00;1.48;;;22.30;97.80;;;;;;5092893;28;20526;-43
2023/06/07 13:14:43;;;;;;;2.58;1.40;;;22.20;98.00;;;;;;5093465;28;20032;-43
2023/06/07 13:17:10;;;;;;;3.03;1.35;;;22.20;98.10;;;;;;5093113;28;20073;-42
2023/06/07 13:19:36;;;;;;;2.53;1.20;;;22.10;98.20;;;;;;5092824;28;20012;-42
2023/06/07 13:22:03;;;;;;;2.42;1.40;;;22.10;98.20;;;;;;5092561;28;20240;-43
2023/06/07 13:24:32;;;;;;;2.85;1.63;;;22.10;98.30;;;;;;5093210;28;20081;-45
2023/06/07 13:26:58;;;;;;;2.65;1.60;;;22.10;98.30;;;;;;5092222;28;20088;-43
2023/06/07 13:29:25;;;;;;;3.25;1.50;;;22.10;98.40;;;;;;5092779;28;20107;-43
2023/06/07 13:31:50;;;;;;;6.25;1.73;;;22.10;98.40;;;;;;5091968;28;20099;-43
2023/06/07 13:34:16;;;;;;;3.10;1.60;;;22.10;98.40;;;;;;5092106;28;20035;-43
2023/06/07 13:36:43;;;;;;;3.78;1.35;;;22.10;98.50;;;;;;5092036;28;20030;-43
2023/06/07 13:39:08;;;;;;;4.65;1.40;;;22.10;98.50;;;;;;5093166;28;20028;-42
2023/06/07 13:41:38;;;;;;;3.47;1.50;;;22.10;98.50;;;;;;5091822;28;20038;-42
2023/06/07 13:44:04;;;;;;;1.90;1.20;;;22.10;98.50;;;;;;5091948;28;20020;-42
2023/06/07 13:46:29;;;;;;;2.25;1.15;;;22.10;98.50;;;;;;5092514;28;20440;-43
2023/06/07 13:48:55;;;;;;;1.95;1.25;;;22.10;98.60;;;;;;5091941;28;20028;-43
2023/06/07 13:51:20;;;;;;;3.03;1.23;;;22.10;98.60;;;;;;5092241;28;20099;-43
2023/06/07 13:53:46;;;;;;;1.70;1.27;;;22.10;98.50;;;;;;5092394;28;20027;-42
2023/06/07 13:56:12;;;;;;;3.17;1.40;;;22.10;98.60;;;;;;5091784;28;20097;-43
2023/06/07 13:58:39;;;;;;;1.70;1.13;;;22.10;98.50;;;;;;5091471;28;20032;-43
2023/06/07 14:01:05;;;;;;;2.92;1.30;;;22.10;98.50;;;;;;5091660;28;20559;-42
2023/06/07 14:03:32;;;;;;;1.45;1.00;;;22.10;98.60;;;;;;5091774;28;20050;-43
2023/06/07 14:05:58;;;;;;;4.05;1.63;;;22.10;98.60;;;;;;5092187;28;20031;-43
2023/06/07 14:08:24;;;;;;;3.33;1.27;;;22.10;98.60;;;;;;5092415;28;20024;-43
2023/06/07 14:10:50;;;;;;;2.83;1.40;;;22.10;98.60;;;;;;5091370;28;20134;-43
2023/06/07 14:13:17;;;;;;;2.13;1.10;;;22.10;98.60;;;;;;5091569;28;20115;-43
2023/06/07 14:15:44;;;;;;;3.05;1.60;;;22.10;98.60;;;;;;5091767;28;20044;-42